San Salvador, El Salvador

3:52 PM CST on October 22, 2014 (GMT -0600)
ILALIBER2 | Change Station
CLOSE
Current Station
Personal Weather Station
Location: Antiguo Cuscatlan, LA LIBERTAD
Elevation: 2776 ft
Nearby Weather Stations

Elev 2776 ft 13.67 °N, 89.23 °W | Updated 1 second ago

Scattered Clouds
Scattered Clouds
77.4 °F
Feels Like 79 °F
N
0.7
Wind Variable Wind from NW
Gusts 3.1 mph

Today
High -- | Low -- °F
--% Chance of Precip.
Yesterday
High -- | Low -- °F
Precip. -- in
5:48 AM 5:33 PM
Waning Crescent, 1% visible
Pressure 29.72 in
Visibility 6.2 miles
Clouds Scattered Clouds 14000 ft
Heat Index 79 °F
Dew Point 77 °F
Humidity 99%
Rainfall 0.15 in
Snow Depth Not available.
UV 1.0 out of 12
Pollen Not available.
Air Quality Not available.
Flu Activity Not available.
METAR MHSC 222058Z AUTO 16011KT 9999 SCT140 27/24 A2983 RMK AO2 SLP063 T02740238 57026 $

More Conditions Fewer Conditions

Pressure 29.72 in
Visibility 6.2 miles
Clouds Scattered Clouds 14000 ft
Heat Index 79 °F
Dew Point 77 °F
Humidity 99%
Rainfall 0.15 in
Snow Depth Not available.
UV 1.0 out of 12
Pollen Not available.
Air Quality Not available.
Flu Activity Not available.
METAR MHSC 222058Z AUTO 16011KT 9999 SCT140 27/24 A2983 RMK AO2 SLP063 T02740238 57026 $

More Conditions Fewer Conditions

10-Day Weather Forecast

Almanac

Astronomy

Oct. 22, 2014 Rise Set
Actual Time 5:48 AM CST 5:33 PM CST
Civil Twilight 5:26 AM CST 5:54 PM CST
Nautical Twilight 5:01 AM CST 6:19 PM CST
Astronomical Twilight 4:36 AM CST 6:44 PM CST
Moon 4:42 AM CST 4:51 PM CST
Length of Visible Light 12h 28m
Length of Day
11h 44m
Tomorrow will be 0m 42s shorter.
Waning Crescent, 1% of the Moon is Illuminated
Today
Waning Crescent
Oct 23
New
Oct 30
First Quarter
Nov 6
Full
Nov 14
Last Quarter

Today's Extremes

Country Highs Country Lows

Community

WunderPhotos

Upload Photos

1,764,047 photos uploaded!

WunderBlogs® & News

Nearby

Snow Depth

Not available.

Earthquake Activity

City Distance Mag. Time & Date
No recent earthquake activity has been reported nearby.
Minimum magnitude displayed is 2.5.

Coastal Water Temperatures

Place Temperature
No Stations Reporting

Nearby Weather Stations